sensor_id;sensor_type;location;lat;lon;timestamp;temperature;humidity
58809;DHT22;44579;51.672;7.834;2023-11-22T00:01:56;6.60;93.60
58809;DHT22;44579;51.672;7.834;2023-11-22T00:04:23;6.60;93.60
58809;DHT22;44579;51.672;7.834;2023-11-22T00:06:54;6.60;93.70
58809;DHT22;44579;51.672;7.834;2023-11-22T00:09:20;6.60;93.70
58809;DHT22;44579;51.672;7.834;2023-11-22T00:11:49;6.60;93.70
58809;DHT22;44579;51.672;7.834;2023-11-22T00:14:16;6.70;93.70
58809;DHT22;44579;51.672;7.834;2023-11-22T00:16:43;6.70;93.60
58809;DHT22;44579;51.672;7.834;2023-11-22T00:19:10;6.70;93.60
58809;DHT22;44579;51.672;7.834;2023-11-22T00:21:36;6.70;93.60
58809;DHT22;44579;51.672;7.834;2023-11-22T00:24:03;6.70;93.60
58809;DHT22;44579;51.672;7.834;2023-11-22T00:26:31;6.70;93.60
58809;DHT22;44579;51.672;7.834;2023-11-22T00:28:59;6.60;93.60
58809;DHT22;44579;51.672;7.834;2023-11-22T00:31:28;6.70;93.60
58809;DHT22;44579;51.672;7.834;2023-11-22T00:33:56;6.60;93.50
58809;DHT22;44579;51.672;7.834;2023-11-22T00:36:23;6.60;93.50
58809;DHT22;44579;51.672;7.834;2023-11-22T00:38:50;6.60;93.30
58809;DHT22;44579;51.672;7.834;2023-11-22T00:41:20;6.60;93.30
58809;DHT22;44579;51.672;7.834;2023-11-22T00:43:47;6.50;93.20
58809;DHT22;44579;51.672;7.834;2023-11-22T00:46:15;6.50;93.10
58809;DHT22;44579;51.672;7.834;2023-11-22T00:48:41;6.50;93.10
58809;DHT22;44579;51.672;7.834;2023-11-22T00:51:08;6.40;93.10
58809;DHT22;44579;51.672;7.834;2023-11-22T00:53:37;6.30;93.10
58809;DHT22;44579;51.672;7.834;2023-11-22T00:56:04;6.30;93.20
58809;DHT22;44579;51.672;7.834;2023-11-22T00:58:32;6.20;93.20
58809;DHT22;44579;51.672;7.834;2023-11-22T01:00:59;6.20;93.30
58809;DHT22;44579;51.672;7.834;2023-11-22T01:03:26;6.10;93.30
58809;DHT22;44579;51.672;7.834;2023-11-22T01:05:53;6.10;93.30
58809;DHT22;44579;51.672;7.834;2023-11-22T01:08:19;6.00;93.30
58809;DHT22;44579;51.672;7.834;2023-11-22T01:10:46;6.00;93.30
58809;DHT22;44579;51.672;7.834;2023-11-22T01:13:13;5.90;93.30
58809;DHT22;44579;51.672;7.834;2023-11-22T01:15:42;5.80;93.30
58809;DHT22;44579;51.672;7.834;2023-11-22T01:18:11;5.80;93.40
58809;DHT22;44579;51.672;7.834;2023-11-22T01:20:38;5.70;93.40
58809;DHT22;44579;51.672;7.834;2023-11-22T01:23:05;5.60;93.40
58809;DHT22;44579;51.672;7.834;2023-11-22T01:25:32;5.50;93.40
58809;DHT22;44579;51.672;7.834;2023-11-22T01:27:59;5.50;93.50
58809;DHT22;44579;51.672;7.834;2023-11-22T01:30:27;5.50;93.50
58809;DHT22;44579;51.672;7.834;2023-11-22T01:32:55;5.40;93.50
58809;DHT22;44579;51.672;7.834;2023-11-22T01:35:22;5.30;93.50
58809;DHT22;44579;51.672;7.834;2023-11-22T01:37:49;5.30;93.50
58809;DHT22;44579;51.672;7.834;2023-11-22T01:40:16;5.30;93.50
58809;DHT22;44579;51.672;7.834;2023-11-22T01:42:43;5.30;93.50
58809;DHT22;44579;51.672;7.834;2023-11-22T01:45:10;5.30;93.50
58809;DHT22;44579;51.672;7.834;2023-11-22T01:47:37;5.20;93.50
58809;DHT22;44579;51.672;7.834;2023-11-22T01:50:04;5.20;93.50
58809;DHT22;44579;51.672;7.834;2023-11-22T01:52:35;5.20;93.50
58809;DHT22;44579;51.672;7.834;2023-11-22T01:55:02;5.10;93.50
58809;DHT22;44579;51.672;7.834;2023-11-22T01:57:31;5.10;93.50
58809;DHT22;44579;51.672;7.834;2023-11-22T02:00:03;5.00;93.50
58809;DHT22;44579;51.672;7.834;2023-11-22T02:02:38;5.00;93.50
58809;DHT22;44579;51.672;7.834;2023-11-22T02:05:05;5.00;93.40
58809;DHT22;44579;51.672;7.834;2023-11-22T02:07:32;5.00;93.40
58809;DHT22;44579;51.672;7.834;2023-11-22T02:09:59;4.90;93.40
58809;DHT22;44579;51.672;7.834;2023-11-22T02:12:26;5.00;93.40
58809;DHT22;44579;51.672;7.834;2023-11-22T02:14:53;4.90;93.40
58809;DHT22;44579;51.672;7.834;2023-11-22T02:17:20;4.90;93.40
58809;DHT22;44579;51.672;7.834;2023-11-22T02:19:49;4.90;93.40
58809;DHT22;44579;51.672;7.834;2023-11-22T02:22:15;4.80;93.30
58809;DHT22;44579;51.672;7.834;2023-11-22T02:24:43;4.80;93.30
58809;DHT22;44579;51.672;7.834;2023-11-22T02:27:10;4.70;93.30
58809;DHT22;44579;51.672;7.834;2023-11-22T02:29:37;4.70;93.30
58809;DHT22;44579;51.672;7.834;2023-11-22T02:32:04;4.70;93.30
58809;DHT22;44579;51.672;7.834;2023-11-22T02:34:31;4.70;93.30
58809;DHT22;44579;51.672;7.834;2023-11-22T02:36:58;4.70;93.30
58809;DHT22;44579;51.672;7.834;2023-11-22T02:39:33;4.70;93.20
58809;DHT22;44579;51.672;7.834;2023-11-22T02:42:04;4.60;93.20
58809;DHT22;44579;51.672;7.834;2023-11-22T02:44:30;4.60;93.20
58809;DHT22;44579;51.672;7.834;2023-11-22T02:46:57;4.60;93.20
58809;DHT22;44579;51.672;7.834;2023-11-22T02:49:25;4.60;93.20
58809;DHT22;44579;51.672;7.834;2023-11-22T02:51:51;4.60;93.20
58809;DHT22;44579;51.672;7.834;2023-11-22T02:54:18;4.50;93.10
58809;DHT22;44579;51.672;7.834;2023-11-22T02:56:45;4.50;93.10
58809;DHT22;44579;51.672;7.834;2023-11-22T02:59:12;4.50;93.10
58809;DHT22;44579;51.672;7.834;2023-11-22T03:01:40;4.50;93.10
58809;DHT22;44579;51.672;7.834;2023-11-22T03:04:10;4.50;93.10
58809;DHT22;44579;51.672;7.834;2023-11-22T03:06:37;4.50;93.00
58809;DHT22;44579;51.672;7.834;2023-11-22T03:09:04;4.50;93.00
58809;DHT22;44579;51.672;7.834;2023-11-22T03:11:31;4.40;93.00
58809;DHT22;44579;51.672;7.834;2023-11-22T03:13:58;4.40;93.00
58809;DHT22;44579;51.672;7.834;2023-11-22T03:16:25;4.40;93.00
58809;DHT22;44579;51.672;7.834;2023-11-22T03:18:52;4.40;92.90
58809;DHT22;44579;51.672;7.834;2023-11-22T03:21:21;4.40;92.90
58809;DHT22;44579;51.672;7.834;2023-11-22T03:23:48;4.40;92.90
58809;DHT22;44579;51.672;7.834;2023-11-22T03:26:16;4.30;92.90
58809;DHT22;44579;51.672;7.834;2023-11-22T03:28:43;4.30;92.90
58809;DHT22;44579;51.672;7.834;2023-11-22T03:31:10;4.30;92.90
58809;DHT22;44579;51.672;7.834;2023-11-22T03:33:37;4.20;92.90
58809;DHT22;44579;51.672;7.834;2023-11-22T03:36:04;4.20;92.90
58809;DHT22;44579;51.672;7.834;2023-11-22T03:38:31;4.20;92.90
58809;DHT22;44579;51.672;7.834;2023-11-22T03:40:58;4.20;92.90
58809;DHT22;44579;51.672;7.834;2023-11-22T03:43:25;4.10;93.00
58809;DHT22;44579;51.672;7.834;2023-11-22T03:45:54;4.10;93.00
58809;DHT22;44579;51.672;7.834;2023-11-22T03:48:21;4.00;93.00
58809;DHT22;44579;51.672;7.834;2023-11-22T03:50:51;4.00;92.90
58809;DHT22;44579;51.672;7.834;2023-11-22T03:53:17;4.00;92.90
58809;DHT22;44579;51.672;7.834;2023-11-22T03:55:47;3.90;92.90
58809;DHT22;44579;51.672;7.834;2023-11-22T03:58:14;3.90;92.90
58809;DHT22;44579;51.672;7.834;2023-11-22T04:00:41;3.80;92.80
58809;DHT22;44579;51.672;7.834;2023-11-22T04:03:08;3.80;92.80
58809;DHT22;44579;51.672;7.834;2023-11-22T04:05:35;3.80;92.70
58809;DHT22;44579;51.672;7.834;2023-11-22T04:08:02;3.70;92.70
58809;DHT22;44579;51.672;7.834;2023-11-22T04:10:29;3.70;92.70
58809;DHT22;44579;51.672;7.834;2023-11-22T04:12:57;3.70;92.70
58809;DHT22;44579;51.672;7.834;2023-11-22T04:15:24;3.70;92.80
58809;DHT22;44579;51.672;7.834;2023-11-22T04:17:52;3.70;92.90
58809;DHT22;44579;51.672;7.834;2023-11-22T04:20:21;3.60;92.80
58809;DHT22;44579;51.672;7.834;2023-11-22T04:22:48;3.60;92.80
58809;DHT22;44579;51.672;7.834;2023-11-22T04:25:15;3.60;92.80
58809;DHT22;44579;51.672;7.834;2023-11-22T04:27:42;3.60;92.80
58809;DHT22;44579;51.672;7.834;2023-11-22T04:30:09;3.50;92.70
58809;DHT22;44579;51.672;7.834;2023-11-22T04:32:40;3.50;92.70
58809;DHT22;44579;51.672;7.834;2023-11-22T04:35:08;3.50;92.70
58809;DHT22;44579;51.672;7.834;2023-11-22T04:37:36;3.40;92.60
58809;DHT22;44579;51.672;7.834;2023-11-22T04:40:03;3.40;92.60
58809;DHT22;44579;51.672;7.834;2023-11-22T04:42:34;3.40;92.60
58809;DHT22;44579;51.672;7.834;2023-11-22T04:45:02;3.30;92.60
58809;DHT22;44579;51.672;7.834;2023-11-22T04:47:29;3.30;92.60
58809;DHT22;44579;51.672;7.834;2023-11-22T04:49:56;3.20;92.60
58809;DHT22;44579;51.672;7.834;2023-11-22T04:52:23;3.20;92.70
58809;DHT22;44579;51.672;7.834;2023-11-22T04:54:50;3.20;92.70
58809;DHT22;44579;51.672;7.834;2023-11-22T04:57:17;3.20;92.70
58809;DHT22;44579;51.672;7.834;2023-11-22T04:59:43;3.10;92.70
58809;DHT22;44579;51.672;7.834;2023-11-22T05:02:11;3.10;93.10
58809;DHT22;44579;51.672;7.834;2023-11-22T05:04:38;3.10;92.70
58809;DHT22;44579;51.672;7.834;2023-11-22T05:07:05;3.10;92.70
58809;DHT22;44579;51.672;7.834;2023-11-22T05:09:32;3.10;92.70
58809;DHT22;44579;51.672;7.834;2023-11-22T05:11:59;3.10;92.70
58809;DHT22;44579;51.672;7.834;2023-11-22T05:14:26;3.00;92.60
58809;DHT22;44579;51.672;7.834;2023-11-22T05:16:53;3.00;92.60
58809;DHT22;44579;51.672;7.834;2023-11-22T05:19:20;3.00;92.60
58809;DHT22;44579;51.672;7.834;2023-11-22T05:21:50;2.90;92.60
58809;DHT22;44579;51.672;7.834;2023-11-22T05:24:18;3.00;92.70
58809;DHT22;44579;51.672;7.834;2023-11-22T05:26:44;2.90;92.80
58809;DHT22;44579;51.672;7.834;2023-11-22T05:29:11;2.90;92.80
58809;DHT22;44579;51.672;7.834;2023-11-22T05:31:38;2.90;92.80
58809;DHT22;44579;51.672;7.834;2023-11-22T05:34:05;2.90;92.80
58809;DHT22;44579;51.672;7.834;2023-11-22T05:36:31;2.90;92.70
58809;DHT22;44579;51.672;7.834;2023-11-22T05:38:58;2.80;92.70
58809;DHT22;44579;51.672;7.834;2023-11-22T05:41:25;2.80;92.70
58809;DHT22;44579;51.672;7.834;2023-11-22T05:43:55;2.80;92.80
58809;DHT22;44579;51.672;7.834;2023-11-22T05:46:22;2.80;92.80
58809;DHT22;44579;51.672;7.834;2023-11-22T05:48:51;2.80;92.70
58809;DHT22;44579;51.672;7.834;2023-11-22T05:51:18;2.80;93.10
58809;DHT22;44579;51.672;7.834;2023-11-22T05:53:46;2.80;92.70
58809;DHT22;44579;51.672;7.834;2023-11-22T05:56:13;2.80;92.60
58809;DHT22;44579;51.672;7.834;2023-11-22T05:58:39;2.70;92.50
58809;DHT22;44579;51.672;7.834;2023-11-22T06:01:07;2.70;92.50
58809;DHT22;44579;51.672;7.834;2023-11-22T06:03:34;2.70;92.40
58809;DHT22;44579;51.672;7.834;2023-11-22T06:06:02;2.60;92.40
58809;DHT22;44579;51.672;7.834;2023-11-22T06:08:32;2.50;92.50
58809;DHT22;44579;51.672;7.834;2023-11-22T06:10:59;2.40;92.50
58809;DHT22;44579;51.672;7.834;2023-11-22T06:13:26;2.40;92.40
58809;DHT22;44579;51.672;7.834;2023-11-22T06:15:54;2.40;92.40
58809;DHT22;44579;51.672;7.834;2023-11-22T06:18:20;2.40;92.40
58809;DHT22;44579;51.672;7.834;2023-11-22T06:20:47;2.40;92.40
58809;DHT22;44579;51.672;7.834;2023-11-22T06:23:15;2.40;92.40
58809;DHT22;44579;51.672;7.834;2023-11-22T06:25:42;2.40;92.40
58809;DHT22;44579;51.672;7.834;2023-11-22T06:28:10;2.30;92.40
58809;DHT22;44579;51.672;7.834;2023-11-22T06:30:36;2.30;92.40
58809;DHT22;44579;51.672;7.834;2023-11-22T06:33:04;2.30;92.40
58809;DHT22;44579;51.672;7.834;2023-11-22T06:35:31;2.20;92.30
58809;DHT22;44579;51.672;7.834;2023-11-22T06:37:58;2.30;92.40
58809;DHT22;44579;51.672;7.834;2023-11-22T06:40:25;2.20;92.40
58809;DHT22;44579;51.672;7.834;2023-11-22T06:42:52;2.20;92.30
58809;DHT22;44579;51.672;7.834;2023-11-22T06:45:19;2.20;92.40
58809;DHT22;44579;51.672;7.834;2023-11-22T06:47:47;2.10;92.40
58809;DHT22;44579;51.672;7.834;2023-11-22T06:50:17;2.10;92.50
58809;DHT22;44579;51.672;7.834;2023-11-22T06:52:44;2.10;92.50
58809;DHT22;44579;51.672;7.834;2023-11-22T06:55:13;2.10;92.50
58809;DHT22;44579;51.672;7.834;2023-11-22T06:57:40;2.10;92.50
58809;DHT22;44579;51.672;7.834;2023-11-22T07:00:07;2.10;92.60
58809;DHT22;44579;51.672;7.834;2023-11-22T07:02:37;2.10;92.60
58809;DHT22;44579;51.672;7.834;2023-11-22T07:05:04;2.00;92.60
58809;DHT22;44579;51.672;7.834;2023-11-22T07:07:38;2.10;92.70
58809;DHT22;44579;51.672;7.834;2023-11-22T07:10:05;2.10;92.70
58809;DHT22;44579;51.672;7.834;2023-11-22T07:12:33;2.10;92.70
58809;DHT22;44579;51.672;7.834;2023-11-22T07:15:02;2.00;92.80
58809;DHT22;44579;51.672;7.834;2023-11-22T07:17:29;2.00;92.90
58809;DHT22;44579;51.672;7.834;2023-11-22T07:19:57;2.00;93.00
58809;DHT22;44579;51.672;7.834;2023-11-22T07:22:24;2.10;93.10
58809;DHT22;44579;51.672;7.834;2023-11-22T07:24:50;2.10;93.10
58809;DHT22;44579;51.672;7.834;2023-11-22T07:27:18;2.20;93.00
58809;DHT22;44579;51.672;7.834;2023-11-22T07:29:45;2.10;93.10
58809;DHT22;44579;51.672;7.834;2023-11-22T07:32:18;2.20;93.20
58809;DHT22;44579;51.672;7.834;2023-11-22T07:34:47;2.20;93.30
58809;DHT22;44579;51.672;7.834;2023-11-22T07:37:14;2.30;93.40
58809;DHT22;44579;51.672;7.834;2023-11-22T07:39:53;2.30;93.40
58809;DHT22;44579;51.672;7.834;2023-11-22T07:42:20;2.40;93.40
58809;DHT22;44579;51.672;7.834;2023-11-22T07:44:48;2.50;93.40
58809;DHT22;44579;51.672;7.834;2023-11-22T07:47:16;2.50;93.30
58809;DHT22;44579;51.672;7.834;2023-11-22T07:49:43;2.60;93.30
58809;DHT22;44579;51.672;7.834;2023-11-22T07:52:11;2.60;93.30
58809;DHT22;44579;51.672;7.834;2023-11-22T07:54:41;2.70;93.30
58809;DHT22;44579;51.672;7.834;2023-11-22T07:57:07;2.70;93.30
58809;DHT22;44579;51.672;7.834;2023-11-22T07:59:34;2.80;93.40
58809;DHT22;44579;51.672;7.834;2023-11-22T08:02:05;2.80;93.50
58809;DHT22;44579;51.672;7.834;2023-11-22T08:04:37;2.90;93.60
58809;DHT22;44579;51.672;7.834;2023-11-22T08:07:04;2.90;93.60
58809;DHT22;44579;51.672;7.834;2023-11-22T08:09:31;3.00;93.70
58809;DHT22;44579;51.672;7.834;2023-11-22T08:11:59;3.10;93.70
58809;DHT22;44579;51.672;7.834;2023-11-22T08:14:32;3.20;93.70
58809;DHT22;44579;51.672;7.834;2023-11-22T08:16:59;3.30;93.70
58809;DHT22;44579;51.672;7.834;2023-11-22T08:19:26;3.30;93.60
58809;DHT22;44579;51.672;7.834;2023-11-22T08:21:54;3.40;93.70
58809;DHT22;44579;51.672;7.834;2023-11-22T08:24:21;3.50;93.70
58809;DHT22;44579;51.672;7.834;2023-11-22T08:26:47;3.50;93.70
58809;DHT22;44579;51.672;7.834;2023-11-22T08:29:14;3.60;93.70
58809;DHT22;44579;51.672;7.834;2023-11-22T08:31:43;3.60;93.70
58809;DHT22;44579;51.672;7.834;2023-11-22T08:34:10;3.70;93.70
58809;DHT22;44579;51.672;7.834;2023-11-22T08:36:38;3.80;93.80
58809;DHT22;44579;51.672;7.834;2023-11-22T08:39:05;3.80;93.70
58809;DHT22;44579;51.672;7.834;2023-11-22T08:41:32;3.90;93.80
58809;DHT22;44579;51.672;7.834;2023-11-22T08:44:00;4.00;93.80
58809;DHT22;44579;51.672;7.834;2023-11-22T08:46:27;4.00;93.70
58809;DHT22;44579;51.672;7.834;2023-11-22T08:48:54;4.10;93.80
58809;DHT22;44579;51.672;7.834;2023-11-22T08:51:23;4.10;93.90
58809;DHT22;44579;51.672;7.834;2023-11-22T08:53:50;4.10;94.30
58809;DHT22;44579;51.672;7.834;2023-11-22T08:56:19;4.20;93.90
58809;DHT22;44579;51.672;7.834;2023-11-22T08:58:47;4.20;94.00
58809;DHT22;44579;51.672;7.834;2023-11-22T09:01:14;4.20;94.00
58809;DHT22;44579;51.672;7.834;2023-11-22T09:03:42;4.30;94.10
58809;DHT22;44579;51.672;7.834;2023-11-22T09:06:11;4.40;94.10
58809;DHT22;44579;51.672;7.834;2023-11-22T09:08:38;4.40;94.00
58809;DHT22;44579;51.672;7.834;2023-11-22T09:11:05;4.40;94.00
58809;DHT22;44579;51.672;7.834;2023-11-22T09:13:44;4.40;94.10
58809;DHT22;44579;51.672;7.834;2023-11-22T09:16:11;4.40;94.20
58809;DHT22;44579;51.672;7.834;2023-11-22T09:18:39;4.50;94.30
58809;DHT22;44579;51.672;7.834;2023-11-22T09:21:06;4.60;94.40
58809;DHT22;44579;51.672;7.834;2023-11-22T09:23:35;4.60;94.40
58809;DHT22;44579;51.672;7.834;2023-11-22T09:26:06;4.70;94.40
58809;DHT22;44579;51.672;7.834;2023-11-22T09:28:33;4.70;94.40
58809;DHT22;44579;51.672;7.834;2023-11-22T09:30:59;4.70;94.40
58809;DHT22;44579;51.672;7.834;2023-11-22T09:33:33;4.80;94.50
58809;DHT22;44579;51.672;7.834;2023-11-22T09:36:00;4.90;94.60
58809;DHT22;44579;51.672;7.834;2023-11-22T09:38:27;4.90;94.70
58809;DHT22;44579;51.672;7.834;2023-11-22T09:40:53;5.00;94.70
58809;DHT22;44579;51.672;7.834;2023-11-22T09:43:20;5.00;94.80
58809;DHT22;44579;51.672;7.834;2023-11-22T09:45:50;5.00;94.90
58809;DHT22;44579;51.672;7.834;2023-11-22T09:48:22;5.00;94.90
58809;DHT22;44579;51.672;7.834;2023-11-22T09:51:04;5.00;95.10
58809;DHT22;44579;51.672;7.834;2023-11-22T09:53:33;5.00;95.10
58809;DHT22;44579;51.672;7.834;2023-11-22T09:56:01;4.90;95.20
58809;DHT22;44579;51.672;7.834;2023-11-22T09:58:33;5.00;95.40
58809;DHT22;44579;51.672;7.834;2023-11-22T10:01:00;5.00;95.40
58809;DHT22;44579;51.672;7.834;2023-11-22T10:03:27;5.00;95.60
58809;DHT22;44579;51.672;7.834;2023-11-22T10:05:58;5.00;95.60
58809;DHT22;44579;51.672;7.834;2023-11-22T10:08:26;5.10;95.70
58809;DHT22;44579;51.672;7.834;2023-11-22T10:10:54;5.10;95.60
58809;DHT22;44579;51.672;7.834;2023-11-22T10:13:21;5.20;95.60
58809;DHT22;44579;51.672;7.834;2023-11-22T10:15:49;5.20;95.50
58809;DHT22;44579;51.672;7.834;2023-11-22T10:18:19;5.20;95.50
58809;DHT22;44579;51.672;7.834;2023-11-22T10:20:46;5.20;95.60
58809;DHT22;44579;51.672;7.834;2023-11-22T10:23:14;5.20;95.60
58809;DHT22;44579;51.672;7.834;2023-11-22T10:25:48;5.30;95.60
58809;DHT22;44579;51.672;7.834;2023-11-22T10:28:18;5.30;95.60
58809;DHT22;44579;51.672;7.834;2023-11-22T10:30:49;5.30;95.70
58809;DHT22;44579;51.672;7.834;2023-11-22T10:33:18;5.30;95.80
58809;DHT22;44579;51.672;7.834;2023-11-22T10:35:47;5.30;95.80
58809;DHT22;44579;51.672;7.834;2023-11-22T10:38:15;5.40;95.80
58809;DHT22;44579;51.672;7.834;2023-11-22T10:40:42;5.50;95.70
58809;DHT22;44579;51.672;7.834;2023-11-22T10:43:12;5.50;95.70
58809;DHT22;44579;51.672;7.834;2023-11-22T10:45:39;5.50;95.60
58809;DHT22;44579;51.672;7.834;2023-11-22T10:48:13;5.60;95.60
58809;DHT22;44579;51.672;7.834;2023-11-22T10:50:49;5.60;95.60
58809;DHT22;44579;51.672;7.834;2023-11-22T10:53:18;5.60;95.60
58809;DHT22;44579;51.672;7.834;2023-11-22T10:55:53;5.70;95.60
58809;DHT22;44579;51.672;7.834;2023-11-22T10:58:24;5.70;95.60
58809;DHT22;44579;51.672;7.834;2023-11-22T11:00:52;5.80;95.60
58809;DHT22;44579;51.672;7.834;2023-11-22T11:03:20;5.80;95.50
58809;DHT22;44579;51.672;7.834;2023-11-22T11:05:56;5.80;95.50
58809;DHT22;44579;51.672;7.834;2023-11-22T11:08:33;5.80;95.50
58809;DHT22;44579;51.672;7.834;2023-11-22T11:11:03;5.90;95.60
58809;DHT22;44579;51.672;7.834;2023-11-22T11:16:39;6.00;95.60
58809;DHT22;44579;51.672;7.834;2023-11-22T11:19:16;5.90;95.70
58809;DHT22;44579;51.672;7.834;2023-11-22T11:21:45;5.90;95.70
58809;DHT22;44579;51.672;7.834;2023-11-22T11:24:12;6.00;95.90
58809;DHT22;44579;51.672;7.834;2023-11-22T11:26:40;6.00;95.90
58809;DHT22;44579;51.672;7.834;2023-11-22T11:29:07;6.00;95.90
58809;DHT22;44579;51.672;7.834;2023-11-22T11:31:53;6.10;96.00
58809;DHT22;44579;51.672;7.834;2023-11-22T11:34:20;6.10;96.00
58809;DHT22;44579;51.672;7.834;2023-11-22T11:36:53;6.10;96.00
58809;DHT22;44579;51.672;7.834;2023-11-22T11:39:25;6.10;96.00
58809;DHT22;44579;51.672;7.834;2023-11-22T11:42:09;6.10;96.10
58809;DHT22;44579;51.672;7.834;2023-11-22T11:47:19;6.20;96.30
58809;DHT22;44579;51.672;7.834;2023-11-22T11:49:48;6.20;96.50
58809;DHT22;44579;51.672;7.834;2023-11-22T11:52:15;6.20;96.60
58809;DHT22;44579;51.672;7.834;2023-11-22T11:54:42;6.20;96.60
58809;DHT22;44579;51.672;7.834;2023-11-22T11:57:10;6.20;96.60
58809;DHT22;44579;51.672;7.834;2023-11-22T11:59:37;6.10;96.50
58809;DHT22;44579;51.672;7.834;2023-11-22T12:02:08;6.20;96.50
58809;DHT22;44579;51.672;7.834;2023-11-22T12:04:35;6.10;96.40
58809;DHT22;44579;51.672;7.834;2023-11-22T12:07:02;6.10;96.40
58809;DHT22;44579;51.672;7.834;2023-11-22T12:09:29;6.10;96.30
58809;DHT22;44579;51.672;7.834;2023-11-22T12:11:59;6.10;96.30
58809;DHT22;44579;51.672;7.834;2023-11-22T12:14:28;6.10;96.40
58809;DHT22;44579;51.672;7.834;2023-11-22T12:16:56;6.10;96.40
58809;DHT22;44579;51.672;7.834;2023-11-22T12:19:25;6.10;96.40
58809;DHT22;44579;51.672;7.834;2023-11-22T12:21:53;6.10;96.30
58809;DHT22;44579;51.672;7.834;2023-11-22T12:24:20;6.10;96.30
58809;DHT22;44579;51.672;7.834;2023-11-22T12:26:48;6.10;96.20
58809;DHT22;44579;51.672;7.834;2023-11-22T12:29:19;6.00;96.20
58809;DHT22;44579;51.672;7.834;2023-11-22T12:31:50;6.00;96.20
58809;DHT22;44579;51.672;7.834;2023-11-22T12:34:18;5.90;96.20
58809;DHT22;44579;51.672;7.834;2023-11-22T12:36:45;5.90;96.30
58809;DHT22;44579;51.672;7.834;2023-11-22T12:39:14;5.80;96.30
58809;DHT22;44579;51.672;7.834;2023-11-22T12:41:44;5.90;96.30
58809;DHT22;44579;51.672;7.834;2023-11-22T12:44:16;5.90;96.30
58809;DHT22;44579;51.672;7.834;2023-11-22T12:46:50;5.90;96.30
58809;DHT22;44579;51.672;7.834;2023-11-22T12:49:25;5.90;96.30
58809;DHT22;44579;51.672;7.834;2023-11-22T12:51:53;5.80;96.20
58809;DHT22;44579;51.672;7.834;2023-11-22T12:54:21;5.90;96.30
58809;DHT22;44579;51.672;7.834;2023-11-22T12:56:49;5.90;96.30
58809;DHT22;44579;51.672;7.834;2023-11-22T12:59:16;5.90;96.30
58809;DHT22;44579;51.672;7.834;2023-11-22T13:01:44;5.80;96.20
58809;DHT22;44579;51.672;7.834;2023-11-22T13:04:11;5.80;96.40
58809;DHT22;44579;51.672;7.834;2023-11-22T13:06:42;5.80;96.40
58809;DHT22;44579;51.672;7.834;2023-11-22T13:09:08;5.90;96.40
58809;DHT22;44579;51.672;7.834;2023-11-22T13:11:42;5.90;96.30
58809;DHT22;44579;51.672;7.834;2023-11-22T13:14:12;5.90;96.20
58809;DHT22;44579;51.672;7.834;2023-11-22T13:16:41;5.90;96.10
58809;DHT22;44579;51.672;7.834;2023-11-22T13:19:09;6.00;96.20
58809;DHT22;44579;51.672;7.834;2023-11-22T13:21:36;5.90;96.10
58809;DHT22;44579;51.672;7.834;2023-11-22T13:24:03;6.00;96.10
58809;DHT22;44579;51.672;7.834;2023-11-22T13:26:33;6.00;96.00
58809;DHT22;44579;51.672;7.834;2023-11-22T13:29:03;6.10;96.00
58809;DHT22;44579;51.672;7.834;2023-11-22T13:31:37;6.10;96.00
58809;DHT22;44579;51.672;7.834;2023-11-22T13:34:06;6.20;96.00
58809;DHT22;44579;51.672;7.834;2023-11-22T13:36:35;6.30;96.00
58809;DHT22;44579;51.672;7.834;2023-11-22T13:39:02;6.30;96.00
58809;DHT22;44579;51.672;7.834;2023-11-22T13:41:29;6.40;95.90
58809;DHT22;44579;51.672;7.834;2023-11-22T13:43:56;6.40;95.90
58809;DHT22;44579;51.672;7.834;2023-11-22T13:46:23;6.40;95.80
58809;DHT22;44579;51.672;7.834;2023-11-22T13:48:50;6.40;95.80
58809;DHT22;44579;51.672;7.834;2023-11-22T13:51:17;6.40;95.80
58809;DHT22;44579;51.672;7.834;2023-11-22T13:53:49;6.40;95.80
58809;DHT22;44579;51.672;7.834;2023-11-22T13:56:20;6.40;95.70
58809;DHT22;44579;51.672;7.834;2023-11-22T13:58:47;6.40;96.10
58809;DHT22;44579;51.672;7.834;2023-11-22T14:01:14;6.40;95.70
58809;DHT22;44579;51.672;7.834;2023-11-22T14:03:48;6.40;95.70
58809;DHT22;44579;51.672;7.834;2023-11-22T14:06:16;6.40;95.70
58809;DHT22;44579;51.672;7.834;2023-11-22T14:08:44;6.30;95.60
58809;DHT22;44579;51.672;7.834;2023-11-22T14:11:12;6.30;95.60
58809;DHT22;44579;51.672;7.834;2023-11-22T14:13:39;6.30;95.60
58809;DHT22;44579;51.672;7.834;2023-11-22T14:16:07;6.20;95.70
58809;DHT22;44579;51.672;7.834;2023-11-22T14:18:54;6.20;95.70
58809;DHT22;44579;51.672;7.834;2023-11-22T14:21:30;6.20;95.60
58809;DHT22;44579;51.672;7.834;2023-11-22T14:24:02;6.20;95.60
58809;DHT22;44579;51.672;7.834;2023-11-22T14:26:30;6.10;95.60
58809;DHT22;44579;51.672;7.834;2023-11-22T14:28:57;6.10;95.60
58809;DHT22;44579;51.672;7.834;2023-11-22T14:31:27;6.10;95.60
58809;DHT22;44579;51.672;7.834;2023-11-22T14:33:56;6.00;95.70
58809;DHT22;44579;51.672;7.834;2023-11-22T14:36:24;6.00;95.60
58809;DHT22;44579;51.672;7.834;2023-11-22T14:38:56;6.00;95.70
58809;DHT22;44579;51.672;7.834;2023-11-22T14:41:27;5.90;95.60
58809;DHT22;44579;51.672;7.834;2023-11-22T14:44:10;5.90;95.60
58809;DHT22;44579;51.672;7.834;2023-11-22T14:46:46;6.00;95.60
58809;DHT22;44579;51.672;7.834;2023-11-22T14:49:16;6.00;95.60
58809;DHT22;44579;51.672;7.834;2023-11-22T14:51:43;5.90;95.60
58809;DHT22;44579;51.672;7.834;2023-11-22T14:54:10;5.90;95.50
58809;DHT22;44579;51.672;7.834;2023-11-22T14:56:37;5.90;95.50
58809;DHT22;44579;51.672;7.834;2023-11-22T14:59:05;5.90;95.60
58809;DHT22;44579;51.672;7.834;2023-11-22T15:01:34;5.90;95.60
58809;DHT22;44579;51.672;7.834;2023-11-22T15:04:01;5.80;95.50
58809;DHT22;44579;51.672;7.834;2023-11-22T15:06:28;5.80;95.50
58809;DHT22;44579;51.672;7.834;2023-11-22T15:08:55;5.80;95.50
58809;DHT22;44579;51.672;7.834;2023-11-22T15:11:25;5.80;95.50
58809;DHT22;44579;51.672;7.834;2023-11-22T15:13:52;5.80;95.60
58809;DHT22;44579;51.672;7.834;2023-11-22T15:16:19;5.80;95.60
58809;DHT22;44579;51.672;7.834;2023-11-22T15:18:47;5.80;95.60
58809;DHT22;44579;51.672;7.834;2023-11-22T15:21:13;5.80;95.50
58809;DHT22;44579;51.672;7.834;2023-11-22T15:23:40;5.80;95.50
58809;DHT22;44579;51.672;7.834;2023-11-22T15:26:08;5.80;95.50
58809;DHT22;44579;51.672;7.834;2023-11-22T15:28:35;5.80;95.50
58809;DHT22;44579;51.672;7.834;2023-11-22T15:31:03;5.90;95.50
58809;DHT22;44579;51.672;7.834;2023-11-22T15:33:32;5.80;95.40
58809;DHT22;44579;51.672;7.834;2023-11-22T15:36:00;5.80;95.40
58809;DHT22;44579;51.672;7.834;2023-11-22T15:38:30;5.80;95.40
58809;DHT22;44579;51.672;7.834;2023-11-22T15:40:57;5.80;95.40
58809;DHT22;44579;51.672;7.834;2023-11-22T15:43:41;5.80;95.40
58809;DHT22;44579;51.672;7.834;2023-11-22T15:46:11;5.90;95.40
58809;DHT22;44579;51.672;7.834;2023-11-22T15:49:05;5.90;95.40
58809;DHT22;44579;51.672;7.834;2023-11-22T15:51:32;5.90;95.40
58809;DHT22;44579;51.672;7.834;2023-11-22T15:53:59;5.80;95.40
58809;DHT22;44579;51.672;7.834;2023-11-22T15:56:27;5.80;95.40
58809;DHT22;44579;51.672;7.834;2023-11-22T15:58:54;5.80;95.50